createdAt,value
2022-12-11T00:05:46.591Z,77.70
2022-12-11T00:27:32.627Z,69.70
2022-12-11T00:49:19.559Z,75.80
2022-12-11T01:11:08.820Z,70.90
2022-12-11T01:32:54.840Z,71.80
2022-12-11T01:54:41.087Z,67.40
2022-12-11T02:16:32.519Z,73.60
2022-12-11T02:38:25.592Z,65.90
2022-12-11T03:00:13.545Z,56.80
2022-12-11T03:22:09.635Z,55.50
2022-12-11T03:43:58.477Z,63.50
2022-12-11T04:05:45.916Z,62.90
2022-12-11T04:27:50.588Z,59.90
2022-12-11T04:49:36.324Z,59.40
2022-12-11T05:11:22.292Z,50.90
2022-12-11T05:54:53.035Z,47.20
2022-12-11T06:16:38.885Z,47.60
2022-12-11T07:00:11.115Z,38.80
2022-12-11T07:21:56.817Z,43.90
2022-12-11T07:43:43.094Z,39.50
2022-12-11T08:05:29.075Z,39.60
2022-12-11T08:27:14.886Z,39.80
2022-12-11T09:10:45.380Z,32.20
2022-12-11T09:32:32.468Z,29.60
2022-12-11T09:54:19.261Z,34.10
2022-12-11T10:16:20.976Z,32.30
2022-12-11T10:38:16.916Z,29.10
2022-12-11T11:00:05.195Z,27.00
2022-12-11T11:21:55.313Z,25.90
2022-12-11T11:43:47.644Z,27.00
2022-12-11T12:05:41.915Z,25.80
2022-12-11T12:27:52.129Z,25.10
2022-12-11T12:49:42.306Z,26.40
2022-12-11T13:11:36.497Z,30.30
2022-12-11T13:33:24.755Z,21.70
2022-12-11T13:55:24.345Z,25.80
2022-12-11T14:17:17.583Z,28.50
2022-12-11T14:39:12.102Z,20.20
2022-12-11T15:01:03.758Z,20.90
2022-12-11T15:22:50.027Z,24.50
2022-12-11T15:44:36.620Z,24.20
2022-12-11T16:06:22.749Z,19.10
2022-12-11T16:28:09.682Z,20.90
2022-12-11T16:49:56.545Z,23.20
2022-12-11T17:11:43.696Z,20.90
2022-12-11T17:33:29.529Z,24.20
2022-12-11T18:17:03.635Z,29.10
2022-12-11T18:38:53.331Z,31.90
2022-12-11T19:00:40.576Z,32.20
2022-12-11T19:22:26.455Z,35.70
2022-12-11T20:06:09.502Z,39.50
2022-12-11T20:27:56.614Z,32.10
2022-12-11T20:49:42.736Z,34.80
2022-12-11T21:11:36.576Z,32.40
2022-12-11T21:33:22.664Z,36.20
2022-12-11T21:55:09.588Z,36.60
2022-12-11T22:16:56.318Z,36.70
2022-12-11T22:38:42.156Z,32.40
2022-12-11T23:22:17.149Z,34.30
2022-12-11T23:44:03.380Z,33.70
